createdAt,value
2023-01-09T00:00:39.179Z,14.20
2023-01-09T00:03:29.861Z,15.10
2023-01-09T00:06:03.993Z,20.20
2023-01-09T00:08:38.828Z,20.40
2023-01-09T00:11:14.326Z,19.80
2023-01-09T00:13:49.247Z,18.80
2023-01-09T00:16:23.642Z,17.70
2023-01-09T00:18:57.548Z,18.50
2023-01-09T00:21:31.660Z,16.70
2023-01-09T00:24:06.484Z,18.00
2023-01-09T00:26:40.584Z,18.70
2023-01-09T00:29:15.993Z,18.50
2023-01-09T00:31:49.912Z,17.60
2023-01-09T00:34:24.607Z,18.30
2023-01-09T00:36:58.470Z,18.80
2023-01-09T00:39:32.209Z,19.10
2023-01-09T00:42:06.356Z,23.10
2023-01-09T00:44:44.463Z,20.40
2023-01-09T00:47:24.298Z,19.10
2023-01-09T00:50:02.004Z,19.80
2023-01-09T00:52:40.353Z,14.90
2023-01-09T00:55:16.027Z,14.50
2023-01-09T00:57:50.257Z,18.10
2023-01-09T01:00:24.513Z,17.30
2023-01-09T01:02:58.605Z,15.70
2023-01-09T01:06:01.398Z,15.40
2023-01-09T01:08:35.775Z,12.00
2023-01-09T01:11:13.139Z,15.10
2023-01-09T01:13:47.139Z,16.80
2023-01-09T01:16:21.110Z,16.50
2023-01-09T01:18:55.153Z,14.80
2023-01-09T01:21:28.896Z,15.40
2023-01-09T01:24:02.736Z,16.90
2023-01-09T01:26:36.901Z,15.70
2023-01-09T01:29:10.758Z,15.00
2023-01-09T01:31:44.469Z,15.60
2023-01-09T01:34:18.455Z,16.80
2023-01-09T01:36:52.321Z,17.80
2023-01-09T01:39:25.998Z,17.00
2023-01-09T01:41:59.964Z,14.90
2023-01-09T01:45:03.793Z,16.80
2023-01-09T01:47:48.471Z,19.70
2023-01-09T01:50:33.177Z,21.00
2023-01-09T01:53:15.280Z,19.60
2023-01-09T01:56:00.044Z,20.10
2023-01-09T01:58:35.384Z,20.40
2023-01-09T02:01:09.949Z,18.50
2023-01-09T02:03:45.307Z,20.70
2023-01-09T02:06:19.942Z,20.60
2023-01-09T02:08:54.259Z,18.60
2023-01-09T02:11:28.737Z,17.00
2023-01-09T02:14:04.027Z,17.30
2023-01-09T02:16:53.691Z,15.90
2023-01-09T02:20:08.879Z,17.60
2023-01-09T02:23:00.410Z,18.30
2023-01-09T02:26:11.625Z,16.90
2023-01-09T02:29:37.951Z,16.40
2023-01-09T02:32:25.439Z,16.00
2023-01-09T02:35:17.254Z,18.10
2023-01-09T02:38:03.460Z,19.00
2023-01-09T02:40:45.480Z,17.50
2023-01-09T02:43:19.946Z,16.90
2023-01-09T02:45:54.098Z,15.00
2023-01-09T02:48:28.229Z,16.80
2023-01-09T02:51:13.951Z,18.50
2023-01-09T02:54:16.907Z,20.40
2023-01-09T02:57:20.079Z,19.10
2023-01-09T03:00:10.408Z,17.30
2023-01-09T03:02:57.744Z,15.20
2023-01-09T03:05:42.126Z,19.10
2023-01-09T03:08:24.105Z,19.00
2023-01-09T03:11:04.733Z,17.50
2023-01-09T03:13:47.219Z,17.90
2023-01-09T03:16:26.233Z,17.70
2023-01-09T03:19:04.039Z,18.30
2023-01-09T03:21:39.481Z,19.10
2023-01-09T03:24:13.697Z,18.60
2023-01-09T03:26:48.210Z,17.10
2023-01-09T03:29:21.918Z,18.10
2023-01-09T03:31:55.941Z,17.10
2023-01-09T03:34:29.718Z,16.90
2023-01-09T03:37:04.977Z,17.80
2023-01-09T03:39:38.869Z,18.80
2023-01-09T03:42:12.550Z,18.20
2023-01-09T03:44:46.292Z,16.80
2023-01-09T03:47:20.306Z,18.10
2023-01-09T03:49:54.218Z,18.00
2023-01-09T03:52:28.139Z,17.40
2023-01-09T03:55:01.882Z,18.50
2023-01-09T03:57:35.634Z,17.90
2023-01-09T04:00:12.625Z,18.40
2023-01-09T04:02:46.946Z,18.70
2023-01-09T04:05:21.151Z,17.50
2023-01-09T04:07:54.954Z,18.90
2023-01-09T04:10:29.065Z,20.00
2023-01-09T04:13:02.925Z,19.00
2023-01-09T04:15:37.150Z,19.50
2023-01-09T04:18:11.335Z,16.80
2023-01-09T04:20:47.782Z,18.30
2023-01-09T04:23:21.825Z,18.60
2023-01-09T04:25:55.450Z,19.30
2023-01-09T04:28:29.315Z,18.00
2023-01-09T04:31:03.485Z,18.00
2023-01-09T04:33:37.545Z,17.40
2023-01-09T04:36:12.944Z,16.20
2023-01-09T04:38:47.370Z,17.90
2023-01-09T04:41:35.141Z,19.50
2023-01-09T04:44:09.035Z,17.60
2023-01-09T04:46:42.994Z,19.10
2023-01-09T04:49:17.580Z,16.90
2023-01-09T04:51:54.620Z,16.50
2023-01-09T04:54:28.918Z,19.90
2023-01-09T04:57:04.097Z,19.60
2023-01-09T04:59:38.199Z,18.90
2023-01-09T05:02:12.486Z,18.70
2023-01-09T05:04:46.373Z,17.90
2023-01-09T05:07:20.246Z,16.90
2023-01-09T05:09:54.416Z,19.10
2023-01-09T05:12:28.515Z,17.80
2023-01-09T05:15:02.387Z,15.90
2023-01-09T05:17:36.258Z,16.40
2023-01-09T05:20:11.817Z,16.00
2023-01-09T05:22:45.812Z,18.70
2023-01-09T05:25:19.899Z,19.30
2023-01-09T05:27:53.735Z,20.30
2023-01-09T05:30:27.564Z,19.60
2023-01-09T05:33:01.438Z,19.40
2023-01-09T05:35:35.279Z,18.30
2023-01-09T05:38:09.294Z,15.40
2023-01-09T05:40:43.109Z,17.20
2023-01-09T05:43:16.989Z,16.90
2023-01-09T05:45:50.604Z,18.00
2023-01-09T05:48:24.510Z,16.40
2023-01-09T05:50:58.480Z,16.40
2023-01-09T05:53:32.220Z,16.30
2023-01-09T05:56:06.180Z,17.30
2023-01-09T05:58:40.415Z,19.50
2023-01-09T06:01:14.225Z,17.90
2023-01-09T06:03:48.212Z,16.50
2023-01-09T06:06:24.269Z,15.80
2023-01-09T06:08:58.500Z,15.60
2023-01-09T06:11:34.396Z,16.00
2023-01-09T06:14:08.743Z,16.10
2023-01-09T06:16:42.480Z,15.10
2023-01-09T06:19:16.468Z,14.30
2023-01-09T06:21:50.337Z,14.90
2023-01-09T06:24:24.554Z,14.20
2023-01-09T06:26:58.524Z,15.00
2023-01-09T06:29:32.355Z,15.50
2023-01-09T06:32:06.502Z,15.10
2023-01-09T06:34:40.331Z,14.70
2023-01-09T06:37:14.412Z,15.00
2023-01-09T06:39:48.545Z,13.50
2023-01-09T06:42:23.109Z,15.60
2023-01-09T06:44:57.159Z,15.30
2023-01-09T06:47:31.132Z,14.40
2023-01-09T06:50:05.163Z,13.80
2023-01-09T06:52:39.569Z,15.00
2023-01-09T06:55:14.447Z,12.80
2023-01-09T06:57:48.985Z,12.00
2023-01-09T07:00:25.377Z,14.00
2023-01-09T07:02:59.407Z,14.00
2023-01-09T07:05:35.985Z,14.30
2023-01-09T07:08:10.397Z,14.00
2023-01-09T07:10:44.352Z,13.50
2023-01-09T07:13:18.534Z,13.20
2023-01-09T07:15:53.757Z,13.50
2023-01-09T07:18:27.729Z,14.10
2023-01-09T07:21:02.052Z,14.30
2023-01-09T07:23:36.045Z,13.40
2023-01-09T07:26:10.333Z,12.90
2023-01-09T07:28:44.273Z,13.90
2023-01-09T07:31:18.508Z,13.90
2023-01-09T07:33:52.934Z,12.80
2023-01-09T07:36:27.076Z,14.00
2023-01-09T07:39:01.291Z,14.20
2023-01-09T07:41:35.148Z,12.90
2023-01-09T07:44:11.812Z,14.20
2023-01-09T07:46:45.954Z,14.50
2023-01-09T07:49:20.167Z,13.40
2023-01-09T07:51:54.075Z,13.50
2023-01-09T07:54:28.006Z,13.30
2023-01-09T07:57:02.143Z,14.20
2023-01-09T07:59:36.312Z,15.30
2023-01-09T08:02:10.568Z,15.60
2023-01-09T08:04:47.022Z,16.20
2023-01-09T08:07:21.406Z,16.20
2023-01-09T08:09:55.922Z,16.70
2023-01-09T08:12:29.970Z,17.10
2023-01-09T08:15:04.853Z,18.10
2023-01-09T08:17:38.691Z,18.10
2023-01-09T08:20:15.843Z,17.60
2023-01-09T08:22:50.883Z,16.70
2023-01-09T08:25:25.498Z,17.00
2023-01-09T08:27:59.696Z,18.20
2023-01-09T08:30:35.179Z,17.90
2023-01-09T08:33:09.388Z,17.00
2023-01-09T08:35:43.871Z,17.50
2023-01-09T08:38:18.314Z,16.60
2023-01-09T08:40:52.940Z,16.00
2023-01-09T08:43:44.744Z,17.80
2023-01-09T08:46:41.205Z,20.30
2023-01-09T08:49:17.173Z,17.50
2023-01-09T08:51:51.721Z,17.80
2023-01-09T08:54:26.396Z,14.80
2023-01-09T08:57:00.582Z,18.00
2023-01-09T08:59:34.666Z,18.70
2023-01-09T09:02:10.522Z,19.00
2023-01-09T09:04:45.058Z,17.90
2023-01-09T09:07:21.465Z,19.20
2023-01-09T09:09:55.732Z,18.30
2023-01-09T09:12:30.174Z,18.90
2023-01-09T09:15:23.546Z,16.90
2023-01-09T09:17:59.773Z,15.90
2023-01-09T09:20:37.317Z,17.70
2023-01-09T09:23:11.538Z,17.40
2023-01-09T09:25:45.563Z,23.40
2023-01-09T09:28:20.078Z,24.20
2023-01-09T09:30:54.572Z,21.00
2023-01-09T09:33:30.395Z,18.00
2023-01-09T09:36:04.517Z,17.80
2023-01-09T09:39:12.508Z,18.80
2023-01-09T09:42:37.346Z,17.50
2023-01-09T09:45:38.462Z,19.80
2023-01-09T09:48:31.369Z,20.50
2023-01-09T09:51:37.396Z,18.20
2023-01-09T09:54:19.792Z,17.40
2023-01-09T09:57:01.062Z,18.50
2023-01-09T09:59:39.245Z,18.10
2023-01-09T10:02:33.186Z,18.10
2023-01-09T10:05:18.355Z,18.50
2023-01-09T10:08:01.294Z,17.70
2023-01-09T10:10:45.790Z,18.90
2023-01-09T10:13:42.607Z,18.00
2023-01-09T10:16:36.549Z,17.50
2023-01-09T10:19:31.880Z,18.80
2023-01-09T10:22:25.063Z,18.30
2023-01-09T10:25:29.624Z,18.10
2023-01-09T10:28:46.174Z,19.40
2023-01-09T10:31:33.787Z,20.00
2023-01-09T10:34:46.900Z,16.80
2023-01-09T10:37:28.388Z,18.10
2023-01-09T10:40:16.071Z,16.80
2023-01-09T10:42:58.837Z,18.90
2023-01-09T10:45:55.530Z,17.80
2023-01-09T10:48:35.181Z,16.30
2023-01-09T10:51:24.056Z,16.10
2023-01-09T10:54:00.691Z,18.00
2023-01-09T10:56:41.654Z,18.70
2023-01-09T10:59:15.995Z,16.10
2023-01-09T11:01:50.616Z,18.10
2023-01-09T11:04:34.126Z,17.70
2023-01-09T11:07:19.656Z,16.50
2023-01-09T11:10:07.473Z,18.70
2023-01-09T11:12:44.358Z,14.00
2023-01-09T11:15:32.708Z,15.10
2023-01-09T11:18:28.636Z,15.30
2023-01-09T11:21:27.269Z,13.70
2023-01-09T11:24:27.896Z,15.90
2023-01-09T11:27:34.129Z,14.10
2023-01-09T11:30:29.645Z,13.50
2023-01-09T11:33:14.946Z,15.60
2023-01-09T11:36:08.171Z,15.30
2023-01-09T11:39:02.895Z,15.80
2023-01-09T11:41:40.352Z,14.30
2023-01-09T11:44:25.277Z,16.10
2023-01-09T11:46:59.930Z,16.90
2023-01-09T11:49:41.868Z,18.30
2023-01-09T11:52:28.083Z,17.90
2023-01-09T11:55:10.785Z,19.10
2023-01-09T11:57:50.618Z,19.00
2023-01-09T12:00:35.437Z,18.00
2023-01-09T12:03:25.293Z,18.10
2023-01-09T12:06:19.193Z,17.90
2023-01-09T12:09:01.565Z,21.50
2023-01-09T12:11:49.115Z,28.90
2023-01-09T12:14:44.095Z,26.30
2023-01-09T12:17:53.863Z,21.30
2023-01-09T12:20:57.926Z,18.50
2023-01-09T12:23:57.910Z,16.60
2023-01-09T12:26:43.369Z,15.40
2023-01-09T12:30:03.086Z,14.70
2023-01-09T12:32:53.136Z,13.30
2023-01-09T12:35:41.627Z,12.30
2023-01-09T12:38:41.444Z,12.20
2023-01-09T12:41:48.618Z,10.10
2023-01-09T12:44:54.207Z,10.60
2023-01-09T12:47:48.434Z,7.70
2023-01-09T12:51:04.656Z,8.80
2023-01-09T12:53:45.271Z,8.70
2023-01-09T12:56:25.866Z,8.40
2023-01-09T12:59:07.957Z,7.50
2023-01-09T13:01:49.591Z,23.00
2023-01-09T13:04:29.719Z,13.20
2023-01-09T13:07:11.550Z,9.20
2023-01-09T13:09:58.789Z,9.50
2023-01-09T13:12:40.317Z,15.50
2023-01-09T13:15:30.668Z,10.20
2023-01-09T13:18:18.407Z,9.60
2023-01-09T13:20:56.956Z,8.90
2023-01-09T13:23:45.297Z,12.00
2023-01-09T13:26:26.053Z,7.90
2023-01-09T13:29:08.003Z,9.40
2023-01-09T13:32:18.760Z,7.20
2023-01-09T13:34:58.669Z,7.90
2023-01-09T13:37:36.393Z,22.80
2023-01-09T13:40:34.939Z,14.00
2023-01-09T13:43:11.095Z,23.10
2023-01-09T13:45:51.694Z,12.60
2023-01-09T13:48:46.180Z,9.60
2023-01-09T13:52:01.440Z,24.80
2023-01-09T13:55:23.843Z,10.50
2023-01-09T13:58:29.283Z,6.50
2023-01-09T14:01:35.950Z,5.20
2023-01-09T14:04:47.622Z,5.20
2023-01-09T14:07:26.672Z,5.80
2023-01-09T14:10:07.405Z,5.70
2023-01-09T14:12:49.040Z,4.90
2023-01-09T14:15:37.905Z,5.20
2023-01-09T14:18:24.961Z,6.00
2023-01-09T14:21:03.195Z,4.20
2023-01-09T14:23:52.290Z,5.30
2023-01-09T14:26:47.077Z,5.40
2023-01-09T14:29:47.660Z,5.40
2023-01-09T14:32:57.271Z,5.10
2023-01-09T14:35:44.329Z,4.90
2023-01-09T14:38:36.831Z,6.10
2023-01-09T14:41:48.042Z,5.20
2023-01-09T14:44:33.155Z,5.20
2023-01-09T14:47:17.938Z,4.60
2023-01-09T14:50:00.769Z,5.20
2023-01-09T14:52:41.886Z,5.00
2023-01-09T14:55:28.493Z,5.80
2023-01-09T14:58:21.667Z,6.40
2023-01-09T15:01:02.591Z,6.60
2023-01-09T15:03:43.549Z,7.00
2023-01-09T15:06:25.605Z,4.70
2023-01-09T15:09:04.670Z,4.40
2023-01-09T15:11:42.962Z,4.90
2023-01-09T15:14:36.022Z,5.20
2023-01-09T15:17:20.961Z,4.30
2023-01-09T15:19:56.103Z,4.40
2023-01-09T15:22:34.675Z,4.80
2023-01-09T15:25:38.088Z,5.00
2023-01-09T15:28:34.067Z,4.50
2023-01-09T15:31:17.361Z,4.30
2023-01-09T15:33:54.021Z,4.20
2023-01-09T15:36:31.506Z,4.50
2023-01-09T15:39:11.818Z,3.90
2023-01-09T15:42:06.573Z,4.60
2023-01-09T15:44:45.916Z,4.60
2023-01-09T15:47:27.881Z,4.60
2023-01-09T15:50:04.559Z,4.80
2023-01-09T15:52:39.067Z,5.00
2023-01-09T15:55:37.070Z,3.70
2023-01-09T15:58:30.967Z,4.80
2023-01-09T16:01:08.393Z,5.00
2023-01-09T16:03:42.492Z,3.50
2023-01-09T16:06:24.725Z,3.80
2023-01-09T16:09:01.478Z,3.60
2023-01-09T16:11:39.723Z,4.10
2023-01-09T16:14:21.987Z,4.20
2023-01-09T16:17:00.702Z,3.70
2023-01-09T16:19:49.550Z,4.30
2023-01-09T16:22:27.083Z,3.90
2023-01-09T16:25:23.231Z,3.40
2023-01-09T16:28:22.059Z,4.30
2023-01-09T16:31:03.055Z,3.60
2023-01-09T16:33:45.208Z,4.00
2023-01-09T16:36:21.315Z,4.40
2023-01-09T16:38:56.151Z,4.20
2023-01-09T16:41:48.561Z,4.70
2023-01-09T16:44:22.610Z,4.00
2023-01-09T16:46:56.663Z,4.60
2023-01-09T16:49:31.866Z,5.70
2023-01-09T16:52:13.233Z,6.20
2023-01-09T16:54:48.059Z,5.70
2023-01-09T16:57:22.349Z,5.60
2023-01-09T17:00:00.201Z,6.30
2023-01-09T17:02:34.559Z,5.70
2023-01-09T17:05:10.165Z,6.40
2023-01-09T17:07:44.099Z,6.40
2023-01-09T17:10:25.136Z,5.90
2023-01-09T17:12:59.455Z,7.20
2023-01-09T17:15:33.559Z,6.50
2023-01-09T17:18:09.973Z,6.60
2023-01-09T17:20:46.084Z,7.70
2023-01-09T17:23:22.472Z,7.60
2023-01-09T17:26:18.509Z,8.00
2023-01-09T17:28:53.839Z,7.60
2023-01-09T17:31:28.102Z,8.70
2023-01-09T17:34:02.413Z,6.60
2023-01-09T17:36:37.567Z,7.10
2023-01-09T17:48:01.220Z,7.90
2023-01-09T17:50:36.550Z,6.80
2023-01-09T17:53:10.760Z,6.80
2023-01-09T17:55:45.311Z,6.60
2023-01-09T17:58:32.304Z,5.40
2023-01-09T18:01:06.449Z,6.90
2023-01-09T18:03:40.555Z,6.50
2023-01-09T18:06:17.278Z,7.10
2023-01-09T18:08:51.367Z,7.40
2023-01-09T18:11:26.130Z,8.60
2023-01-09T18:14:00.267Z,10.40
2023-01-09T18:16:35.156Z,10.10
2023-01-09T18:19:10.363Z,9.40
2023-01-09T18:21:44.234Z,8.40
2023-01-09T18:24:18.702Z,8.80
2023-01-09T18:26:52.953Z,8.50
2023-01-09T18:29:27.531Z,8.60
2023-01-09T18:32:02.311Z,9.90
2023-01-09T18:34:36.655Z,8.50
2023-01-09T18:37:11.445Z,10.30
2023-01-09T18:39:47.457Z,9.30
2023-01-09T18:42:21.798Z,10.00
2023-01-09T18:44:55.939Z,10.60
2023-01-09T18:47:30.186Z,10.50
2023-01-09T18:50:04.224Z,9.50
2023-01-09T18:52:38.255Z,9.90
2023-01-09T18:55:13.276Z,9.30
2023-01-09T18:57:47.206Z,8.60
2023-01-09T19:00:22.404Z,8.50
2023-01-09T19:02:56.302Z,8.60
2023-01-09T19:05:30.234Z,8.50
2023-01-09T19:08:04.477Z,8.10
2023-01-09T19:10:38.597Z,8.70
2023-01-09T19:13:12.831Z,8.10
2023-01-09T19:15:46.863Z,7.80
2023-01-09T19:18:20.846Z,8.40
2023-01-09T19:20:56.101Z,8.00
2023-01-09T19:23:30.274Z,7.90
2023-01-09T19:26:09.831Z,9.20
2023-01-09T19:28:46.784Z,9.70
2023-01-09T19:31:22.604Z,10.80
2023-01-09T19:33:57.637Z,10.70
2023-01-09T19:36:32.454Z,13.20
2023-01-09T19:39:07.530Z,11.10
2023-01-09T19:41:42.299Z,10.50
2023-01-09T19:44:16.409Z,11.00
2023-01-09T19:46:50.346Z,10.50
2023-01-09T19:49:24.568Z,13.50
2023-01-09T19:52:00.794Z,12.50
2023-01-09T19:54:36.392Z,13.00
2023-01-09T19:57:10.392Z,10.10
2023-01-09T19:59:44.119Z,10.70
2023-01-09T20:02:18.139Z,11.20
2023-01-09T20:04:52.049Z,10.80
2023-01-09T20:07:26.056Z,11.60
2023-01-09T20:10:00.387Z,9.60
2023-01-09T20:12:37.366Z,9.80
2023-01-09T20:15:15.729Z,9.10
2023-01-09T20:17:49.757Z,9.40
2023-01-09T20:20:23.695Z,8.90
2023-01-09T20:22:57.473Z,7.70
2023-01-09T20:25:31.580Z,9.70
2023-01-09T20:28:05.879Z,9.80
2023-01-09T20:30:43.721Z,10.60
2023-01-09T20:33:18.509Z,11.20
2023-01-09T20:35:52.867Z,12.70
2023-01-09T20:38:26.863Z,22.80
2023-01-09T20:41:07.434Z,19.60
2023-01-09T20:43:43.019Z,20.30
2023-01-09T20:46:17.037Z,21.80
2023-01-09T20:48:51.051Z,19.10
2023-01-09T20:51:25.042Z,17.00
2023-01-09T20:53:59.629Z,14.60
2023-01-09T20:56:36.559Z,15.00
2023-01-09T20:59:14.651Z,18.90
2023-01-09T21:01:48.760Z,19.20
2023-01-09T21:04:22.826Z,21.40
2023-01-09T21:06:56.818Z,19.50
2023-01-09T21:09:30.678Z,13.90
2023-01-09T21:12:24.648Z,12.50
2023-01-09T21:15:02.171Z,14.50
2023-01-09T21:17:39.591Z,15.40
2023-01-09T21:20:17.247Z,20.10
2023-01-09T21:22:51.087Z,19.50
2023-01-09T21:25:25.090Z,18.00
2023-01-09T21:27:58.966Z,17.20
2023-01-09T21:30:32.691Z,16.90
2023-01-09T21:33:06.984Z,17.50
2023-01-09T21:35:40.983Z,16.40
2023-01-09T21:38:14.850Z,15.70
2023-01-09T21:40:51.994Z,15.70
2023-01-09T21:43:48.509Z,18.30
2023-01-09T21:46:40.824Z,19.00
2023-01-09T21:49:14.971Z,19.40
2023-01-09T21:51:50.790Z,19.00
2023-01-09T21:54:25.273Z,20.30
2023-01-09T21:56:59.329Z,20.60
2023-01-09T21:59:33.383Z,19.00
2023-01-09T22:02:07.259Z,17.60
2023-01-09T22:04:43.167Z,17.90
2023-01-09T22:07:17.672Z,16.20
2023-01-09T22:09:52.272Z,20.70
2023-01-09T22:12:26.378Z,19.30
2023-01-09T22:15:00.191Z,20.10
2023-01-09T22:17:34.230Z,17.00
2023-01-09T22:20:10.467Z,18.20
2023-01-09T22:22:44.221Z,18.70
2023-01-09T22:25:18.472Z,18.00
2023-01-09T22:27:52.393Z,19.40
2023-01-09T22:30:26.192Z,18.70
2023-01-09T22:33:00.667Z,16.10
2023-01-09T22:35:34.729Z,16.90
2023-01-09T22:38:09.257Z,16.00
2023-01-09T22:40:44.181Z,16.20
2023-01-09T22:43:18.058Z,16.60
2023-01-09T22:45:52.071Z,18.10
2023-01-09T22:48:28.757Z,19.10
2023-01-09T22:51:05.717Z,18.70
2023-01-09T22:53:39.754Z,20.70
2023-01-09T22:56:18.126Z,21.50
2023-01-09T22:58:58.453Z,21.70
2023-01-09T23:01:32.450Z,21.20
2023-01-09T23:04:06.847Z,20.40
2023-01-09T23:06:40.913Z,21.90
2023-01-09T23:09:14.956Z,20.70
2023-01-09T23:12:03.977Z,20.60
2023-01-09T23:14:40.273Z,21.20
2023-01-09T23:17:14.956Z,19.80
2023-01-09T23:19:49.167Z,18.30
2023-01-09T23:22:23.481Z,19.00
2023-01-09T23:24:57.509Z,20.00
2023-01-09T23:27:31.500Z,19.00
2023-01-09T23:30:05.518Z,21.40
2023-01-09T23:32:39.797Z,19.60
2023-01-09T23:35:16.155Z,24.10
2023-01-09T23:37:49.995Z,20.70
2023-01-09T23:40:23.947Z,18.90
2023-01-09T23:43:10.358Z,21.30
2023-01-09T23:45:47.760Z,19.70
2023-01-09T23:48:22.539Z,23.20
2023-01-09T23:50:57.495Z,21.80
2023-01-09T23:53:32.995Z,22.50
2023-01-09T23:56:07.249Z,22.60
2023-01-09T23:58:40.927Z,23.50
